createdAt,value
2022-12-16T00:01:20.607Z,35.13
2022-12-16T00:03:49.875Z,31.20
2022-12-16T00:06:22.463Z,28.30
2022-12-16T00:08:50.387Z,33.45
2022-12-16T00:11:20.589Z,30.80
2022-12-16T00:13:48.850Z,31.15
2022-12-16T00:16:18.678Z,28.75
2022-12-16T00:18:47.008Z,29.30
2022-12-16T00:21:15.482Z,32.60
2022-12-16T00:23:44.767Z,32.92
2022-12-16T00:26:14.139Z,32.17
2022-12-16T00:28:43.834Z,29.20
2022-12-16T00:31:12.373Z,28.50
2022-12-16T00:33:40.314Z,26.83
2022-12-16T00:36:09.483Z,27.10
2022-12-16T00:38:37.998Z,26.40
2022-12-16T00:41:08.105Z,18.55
2022-12-16T00:43:36.287Z,20.02
2022-12-16T00:46:04.738Z,20.42
2022-12-16T00:48:32.695Z,18.02
2022-12-16T00:51:00.617Z,16.00
2022-12-16T00:53:29.056Z,13.38
2022-12-16T00:56:03.192Z,16.80
2022-12-16T00:58:32.421Z,10.18
2022-12-16T01:01:00.261Z,9.55
2022-12-16T01:03:28.725Z,13.23
2022-12-16T01:05:56.683Z,8.30
2022-12-16T01:08:24.590Z,10.48
2022-12-16T01:10:53.219Z,14.52
2022-12-16T01:13:25.342Z,7.90
2022-12-16T01:15:54.609Z,9.00
2022-12-16T01:18:22.643Z,12.10
2022-12-16T01:20:50.696Z,7.50
2022-12-16T01:23:19.218Z,7.82
2022-12-16T01:25:49.772Z,15.75
2022-12-16T01:28:17.757Z,11.57
2022-12-16T01:30:45.600Z,7.90
2022-12-16T01:33:14.860Z,10.35
2022-12-16T01:35:55.650Z,11.00
2022-12-16T01:38:24.100Z,8.23
2022-12-16T01:40:52.689Z,10.15
2022-12-16T01:43:27.106Z,7.55
2022-12-16T01:46:00.237Z,11.10
2022-12-16T01:48:41.289Z,7.32
2022-12-16T01:51:14.421Z,10.52
2022-12-16T01:53:43.866Z,7.47
2022-12-16T01:56:16.635Z,9.27
2022-12-16T01:58:47.010Z,4.43
2022-12-16T02:01:17.772Z,6.80
2022-12-16T02:03:48.916Z,8.73
2022-12-16T02:06:17.191Z,6.43
2022-12-16T02:08:45.041Z,4.75
2022-12-16T02:11:34.103Z,9.77
2022-12-16T02:14:18.591Z,5.68
2022-12-16T02:16:53.153Z,6.53
2022-12-16T02:19:56.219Z,4.78
2022-12-16T02:22:34.493Z,5.75
2022-12-16T02:25:35.788Z,7.90
2022-12-16T02:28:09.740Z,11.10
2022-12-16T02:30:55.356Z,4.72
2022-12-16T02:33:49.275Z,8.07
2022-12-16T02:36:26.603Z,6.53
2022-12-16T02:39:00.171Z,7.50
2022-12-16T02:41:37.892Z,7.18
2022-12-16T02:44:07.817Z,11.95
2022-12-16T02:46:42.562Z,18.65
2022-12-16T02:49:55.087Z,19.92
2022-12-16T02:52:25.663Z,17.17
2022-12-16T02:54:57.006Z,10.38
2022-12-16T02:57:41.869Z,9.40
2022-12-16T03:00:13.933Z,15.02
2022-12-16T03:02:50.808Z,9.00
2022-12-16T03:05:23.665Z,8.80
2022-12-16T03:07:55.191Z,10.50
2022-12-16T03:10:28.978Z,9.85
2022-12-16T03:12:59.526Z,17.90
2022-12-16T03:15:32.171Z,12.30
2022-12-16T03:18:03.237Z,12.43
2022-12-16T03:20:36.403Z,13.90
2022-12-16T03:23:09.562Z,14.40
2022-12-16T03:25:42.482Z,18.30
2022-12-16T03:28:26.576Z,15.65
2022-12-16T03:31:02.248Z,29.55
2022-12-16T03:33:36.353Z,19.38
2022-12-16T03:36:11.444Z,22.98
2022-12-16T03:38:42.469Z,28.48
2022-12-16T03:41:10.773Z,26.63
2022-12-16T03:43:40.339Z,29.23
2022-12-16T03:46:10.652Z,32.10
2022-12-16T03:48:46.456Z,41.22
2022-12-16T03:51:14.689Z,42.25
2022-12-16T03:53:42.576Z,40.20
2022-12-16T03:56:11.520Z,43.35
2022-12-16T03:58:40.287Z,32.53
2022-12-16T04:01:09.484Z,40.58
2022-12-16T04:03:39.508Z,37.25
2022-12-16T04:06:07.890Z,39.25
2022-12-16T04:08:35.789Z,39.78
2022-12-16T04:11:21.296Z,43.28
2022-12-16T04:14:06.557Z,43.72
2022-12-16T04:16:51.829Z,46.10
2022-12-16T04:19:43.960Z,43.55
2022-12-16T04:22:33.076Z,50.33
2022-12-16T04:25:05.842Z,48.85
2022-12-16T04:27:34.386Z,48.58
2022-12-16T04:30:20.518Z,58.25
2022-12-16T04:33:10.633Z,52.00
2022-12-16T04:35:57.179Z,56.83
2022-12-16T04:38:42.955Z,53.67
2022-12-16T04:41:28.486Z,54.47
2022-12-16T04:44:14.343Z,49.63
2022-12-16T04:46:59.660Z,48.38
2022-12-16T04:49:44.936Z,51.40
2022-12-16T04:52:31.841Z,50.97
2022-12-16T04:55:17.225Z,48.53
2022-12-16T04:58:03.493Z,49.65
2022-12-16T05:00:49.009Z,44.25
2022-12-16T05:03:34.713Z,42.78
2022-12-16T05:06:20.734Z,52.45
2022-12-16T05:09:07.430Z,41.55
2022-12-16T05:11:53.011Z,45.22
2022-12-16T05:14:38.649Z,48.08
2022-12-16T05:17:24.371Z,46.08
2022-12-16T05:20:10.090Z,42.92
2022-12-16T05:22:55.496Z,44.97
2022-12-16T05:25:42.095Z,49.35
2022-12-16T05:28:27.474Z,48.30
2022-12-16T05:31:12.995Z,48.47
2022-12-16T05:33:58.270Z,48.10
2022-12-16T05:36:43.842Z,54.22
2022-12-16T05:42:25.183Z,55.40
2022-12-16T05:45:10.578Z,51.90
2022-12-16T05:47:55.851Z,56.60
2022-12-16T05:50:41.109Z,59.17
2022-12-16T05:53:27.633Z,57.60
2022-12-16T05:56:12.932Z,51.85
2022-12-16T05:58:59.524Z,54.47
2022-12-16T06:01:45.069Z,48.97
2022-12-16T06:04:30.850Z,51.33
2022-12-16T06:07:15.987Z,47.95
2022-12-16T06:10:01.296Z,53.83
2022-12-16T06:12:46.769Z,54.00
2022-12-16T06:15:33.914Z,57.90
2022-12-16T06:18:19.276Z,55.65
2022-12-16T06:21:09.931Z,52.78
2022-12-16T06:23:57.767Z,52.25
2022-12-16T06:26:43.269Z,47.88
2022-12-16T06:29:28.831Z,53.03
2022-12-16T06:32:15.736Z,52.50
2022-12-16T06:35:01.557Z,53.90
2022-12-16T06:37:46.889Z,54.45
2022-12-16T06:40:32.346Z,50.65
2022-12-16T06:43:17.763Z,50.00
2022-12-16T06:46:03.730Z,47.78
2022-12-16T06:48:50.591Z,45.10
2022-12-16T06:51:36.093Z,54.22
2022-12-16T06:54:21.528Z,49.50
2022-12-16T06:57:06.832Z,55.25
2022-12-16T06:59:52.118Z,48.47
2022-12-16T07:02:37.767Z,48.65
2022-12-16T07:05:25.162Z,51.55
2022-12-16T07:08:10.920Z,47.03
2022-12-16T07:11:03.439Z,51.85
2022-12-16T07:13:59.128Z,45.22
2022-12-16T07:16:44.723Z,54.13
2022-12-16T07:19:30.215Z,52.25
2022-12-16T07:22:16.912Z,47.17
2022-12-16T07:25:02.504Z,49.50
2022-12-16T07:27:47.686Z,55.47
2022-12-16T07:30:32.892Z,50.60
2022-12-16T07:33:18.365Z,48.50
2022-12-16T07:36:03.930Z,55.13
2022-12-16T07:38:50.580Z,49.95
2022-12-16T07:41:36.361Z,58.55
2022-12-16T07:44:23.121Z,46.55
2022-12-16T07:47:08.739Z,53.78
2022-12-16T07:49:55.387Z,46.88
2022-12-16T07:52:41.092Z,50.85
2022-12-16T07:55:28.105Z,56.35
2022-12-16T07:58:13.464Z,59.90
2022-12-16T08:00:58.782Z,62.15
2022-12-16T08:03:44.373Z,54.53
2022-12-16T08:06:30.003Z,50.72
2022-12-16T08:09:15.493Z,54.85
2022-12-16T08:12:03.063Z,51.50
2022-12-16T08:14:45.015Z,51.95
2022-12-16T08:17:30.682Z,48.88
2022-12-16T08:20:12.464Z,53.13
2022-12-16T08:23:04.379Z,50.00
2022-12-16T08:25:50.116Z,55.28
2022-12-16T08:28:37.766Z,55.97
2022-12-16T08:31:23.775Z,49.67
2022-12-16T08:34:09.056Z,50.42
2022-12-16T08:36:54.313Z,53.42
2022-12-16T08:39:39.929Z,45.67
2022-12-16T08:42:24.366Z,49.55
2022-12-16T08:45:10.950Z,51.17
2022-12-16T08:47:56.128Z,44.13
2022-12-16T08:50:41.927Z,45.47
2022-12-16T08:53:27.567Z,47.63
2022-12-16T08:56:12.877Z,51.65
2022-12-16T08:58:58.845Z,46.13
2022-12-16T09:01:45.433Z,46.80
2022-12-16T09:04:31.097Z,49.83
2022-12-16T09:07:16.875Z,45.47
2022-12-16T09:10:02.501Z,51.75
2022-12-16T09:12:48.008Z,49.53
2022-12-16T09:15:33.872Z,47.50
2022-12-16T09:18:20.368Z,46.88
2022-12-16T09:21:05.780Z,46.30
2022-12-16T09:23:51.009Z,53.00
2022-12-16T09:26:36.466Z,50.10
2022-12-16T09:29:22.176Z,50.05
2022-12-16T09:32:07.595Z,54.08
2022-12-16T09:34:55.216Z,50.47
2022-12-16T09:37:40.644Z,49.00
2022-12-16T09:40:29.846Z,45.28
2022-12-16T09:43:33.427Z,47.80
2022-12-16T09:46:27.836Z,48.25
2022-12-16T09:49:19.925Z,52.45
2022-12-16T09:52:08.094Z,50.55
2022-12-16T09:54:58.270Z,45.50
2022-12-16T09:57:48.087Z,51.38
2022-12-16T10:00:40.444Z,54.87
2022-12-16T10:03:38.352Z,52.05
2022-12-16T10:06:28.280Z,60.13
2022-12-16T10:09:22.687Z,57.60
2022-12-16T10:12:21.554Z,50.65
2022-12-16T10:15:14.056Z,58.00
2022-12-16T10:18:15.524Z,58.45
2022-12-16T10:21:07.814Z,53.58
2022-12-16T10:24:00.812Z,57.83
2022-12-16T10:27:10.005Z,51.20
2022-12-16T10:29:58.821Z,54.53
2022-12-16T10:32:49.557Z,56.90
2022-12-16T10:35:40.443Z,52.28
2022-12-16T10:38:37.075Z,56.90
2022-12-16T10:41:25.114Z,63.70
2022-12-16T10:44:14.047Z,66.50
2022-12-16T10:46:59.536Z,68.78
2022-12-16T10:49:47.452Z,65.63
2022-12-16T10:52:36.415Z,69.78
2022-12-16T10:55:36.086Z,68.85
2022-12-16T10:58:35.667Z,70.97
2022-12-16T11:01:40.713Z,70.75
2022-12-16T11:04:51.764Z,67.20
2022-12-16T11:07:48.576Z,71.20
2022-12-16T11:10:45.071Z,64.22
2022-12-16T11:13:36.809Z,71.68
2022-12-16T11:16:31.161Z,67.63
2022-12-16T11:19:17.195Z,68.85
2022-12-16T11:22:03.058Z,69.88
2022-12-16T11:24:49.422Z,65.35
2022-12-16T11:27:42.227Z,67.07
2022-12-16T11:30:40.203Z,70.60
2022-12-16T11:33:36.611Z,76.20
2022-12-16T11:36:29.896Z,63.50
2022-12-16T11:39:17.120Z,64.05
2022-12-16T11:42:05.911Z,62.30
2022-12-16T11:44:55.213Z,65.70
2022-12-16T11:47:51.480Z,60.58
2022-12-16T11:50:40.171Z,66.97
2022-12-16T11:53:43.048Z,67.15
2022-12-16T11:56:33.982Z,68.05
2022-12-16T11:59:31.122Z,71.97
2022-12-16T12:02:19.667Z,65.47
2022-12-16T12:05:19.048Z,63.30
2022-12-16T12:08:16.317Z,72.88
2022-12-16T12:11:18.182Z,69.68
2022-12-16T12:14:19.911Z,68.25
2022-12-16T12:17:15.749Z,62.47
2022-12-16T12:20:12.851Z,73.50
2022-12-16T12:22:58.760Z,64.05
2022-12-16T12:25:52.704Z,74.88
2022-12-16T12:28:50.941Z,66.68
2022-12-16T12:31:55.097Z,67.22
2022-12-16T12:34:48.924Z,68.82
2022-12-16T12:37:41.867Z,51.53
2022-12-16T12:40:49.988Z,69.95
2022-12-16T12:43:48.372Z,67.70
2022-12-16T12:46:40.699Z,75.93
2022-12-16T12:49:32.357Z,65.10
2022-12-16T12:52:26.852Z,72.57
2022-12-16T12:55:19.669Z,71.05
2022-12-16T12:58:07.539Z,73.28
2022-12-16T13:01:00.910Z,73.05
2022-12-16T13:03:53.381Z,68.78
2022-12-16T13:06:39.526Z,71.57
2022-12-16T13:09:48.417Z,68.30
2022-12-16T13:12:42.670Z,74.13
2022-12-16T13:15:32.537Z,75.18
2022-12-16T13:18:52.834Z,75.00
2022-12-16T13:22:01.810Z,76.93
2022-12-16T13:25:02.121Z,67.35
2022-12-16T13:27:49.054Z,69.57
2022-12-16T13:30:43.195Z,67.90
2022-12-16T13:33:44.139Z,64.00
2022-12-16T13:36:29.447Z,78.63
2022-12-16T13:39:18.375Z,78.72
2022-12-16T13:42:17.912Z,78.75
2022-12-16T13:45:17.552Z,70.85
2022-12-16T13:48:22.186Z,78.60
2022-12-16T13:51:18.123Z,71.80
2022-12-16T13:54:11.203Z,76.20
2022-12-16T13:57:01.900Z,70.60
2022-12-16T13:59:50.580Z,78.78
2022-12-16T14:02:44.544Z,79.53
2022-12-16T14:05:52.531Z,76.40
2022-12-16T14:08:41.118Z,75.40
2022-12-16T14:11:35.974Z,76.32
2022-12-16T14:14:28.726Z,82.93
2022-12-16T14:17:18.287Z,72.82
2022-12-16T14:20:15.212Z,76.60
2022-12-16T14:23:32.459Z,72.65
2022-12-16T14:26:22.060Z,77.70
2022-12-16T14:29:09.052Z,79.30
2022-12-16T14:31:57.685Z,76.63
2022-12-16T14:34:44.953Z,73.35
2022-12-16T14:37:34.827Z,75.70
2022-12-16T14:40:20.956Z,77.20
2022-12-16T14:43:12.985Z,76.68
2022-12-16T14:46:07.632Z,86.90
2022-12-16T14:48:54.656Z,82.85
2022-12-16T14:52:31.203Z,81.53
2022-12-16T14:55:19.096Z,81.70
2022-12-16T14:58:20.982Z,80.35
2022-12-16T15:01:15.337Z,84.35
2022-12-16T15:04:03.336Z,85.82
2022-12-16T15:06:57.598Z,77.55
2022-12-16T15:12:33.644Z,83.68
2022-12-16T15:15:22.615Z,91.35
2022-12-16T15:18:13.752Z,87.35
2022-12-16T15:21:07.313Z,79.93
2022-12-16T15:23:54.032Z,88.25
2022-12-16T15:26:41.633Z,80.38
2022-12-16T15:29:45.872Z,76.30
2022-12-16T15:35:46.876Z,86.22
2022-12-16T15:38:41.837Z,76.38
2022-12-16T15:41:39.611Z,87.18
2022-12-16T15:44:32.372Z,78.32
2022-12-16T15:47:18.381Z,86.13
2022-12-16T15:50:06.000Z,95.20
2022-12-16T15:52:58.443Z,89.95
2022-12-16T15:55:50.123Z,86.50
2022-12-16T15:58:43.222Z,72.43
2022-12-16T16:01:30.519Z,86.47
2022-12-16T16:04:16.873Z,84.05
2022-12-16T16:07:05.702Z,82.45
2022-12-16T16:09:54.759Z,86.22
2022-12-16T16:12:41.906Z,88.00
2022-12-16T16:15:30.478Z,77.70
2022-12-16T16:18:17.798Z,76.32
2022-12-16T16:21:04.064Z,89.45
2022-12-16T16:23:50.100Z,88.13
2022-12-16T16:26:39.520Z,85.03
2022-12-16T16:29:25.107Z,75.15
2022-12-16T16:32:11.059Z,83.60
2022-12-16T16:34:56.542Z,80.10
2022-12-16T16:37:42.202Z,89.53
2022-12-16T16:40:43.919Z,86.15
2022-12-16T16:43:31.265Z,80.15
2022-12-16T16:46:17.698Z,82.70
2022-12-16T16:49:03.306Z,78.70
2022-12-16T16:51:49.191Z,78.22
2022-12-16T16:54:34.629Z,83.22
2022-12-16T16:57:20.484Z,82.97
2022-12-16T17:00:07.727Z,77.60
2022-12-16T17:02:53.389Z,85.10
2022-12-16T17:05:39.000Z,80.22
2022-12-16T17:08:24.639Z,80.88
2022-12-16T17:11:10.098Z,72.53
2022-12-16T17:13:55.719Z,85.97
2022-12-16T17:16:42.539Z,81.07
2022-12-16T17:19:28.016Z,80.30
2022-12-16T17:22:27.972Z,87.88
2022-12-16T17:25:16.038Z,84.25
2022-12-16T17:28:09.598Z,77.45
2022-12-16T17:30:55.641Z,77.35
2022-12-16T17:33:42.312Z,79.70
2022-12-16T17:36:31.950Z,86.75
2022-12-16T17:39:17.995Z,81.13
2022-12-16T17:42:03.995Z,80.72
2022-12-16T17:44:49.172Z,81.15
2022-12-16T17:47:35.167Z,84.75
2022-12-16T17:50:23.953Z,82.47
2022-12-16T17:53:13.273Z,82.75
2022-12-16T17:55:59.457Z,89.95
2022-12-16T17:58:49.717Z,83.88
2022-12-16T18:01:35.498Z,93.13
2022-12-16T18:04:21.447Z,92.22
2022-12-16T18:07:08.144Z,80.47
2022-12-16T18:09:53.944Z,89.43
2022-12-16T18:12:40.004Z,91.95
2022-12-16T18:15:26.156Z,91.07
2022-12-16T18:18:11.497Z,95.40
2022-12-16T18:20:56.911Z,83.80
2022-12-16T18:23:43.921Z,94.88
2022-12-16T18:26:29.462Z,90.85
2022-12-16T18:29:15.312Z,94.97
2022-12-16T18:32:03.845Z,91.43
2022-12-16T18:34:49.472Z,96.40
2022-12-16T18:37:35.023Z,89.13
2022-12-16T18:40:30.598Z,94.28
2022-12-16T18:43:16.056Z,83.47
2022-12-16T18:46:01.513Z,84.22
2022-12-16T18:48:46.932Z,95.80
2022-12-16T18:51:32.494Z,86.43
2022-12-16T18:54:17.806Z,92.20
2022-12-16T18:57:04.382Z,89.22
2022-12-16T19:00:01.289Z,90.20
2022-12-16T19:02:46.946Z,86.72
2022-12-16T19:05:32.928Z,85.68
2022-12-16T19:08:18.347Z,88.78
2022-12-16T19:11:03.977Z,94.05
2022-12-16T19:13:50.485Z,94.25
2022-12-16T19:16:36.215Z,83.47
2022-12-16T19:19:22.036Z,137.90
2022-12-16T19:22:07.750Z,82.30
2022-12-16T19:24:56.268Z,101.82
2022-12-16T19:27:42.452Z,93.13
2022-12-16T19:30:30.035Z,114.55
2022-12-16T19:33:15.484Z,98.63
2022-12-16T19:36:00.724Z,115.03
2022-12-16T19:38:46.380Z,93.10
2022-12-16T19:41:33.912Z,147.50
2022-12-16T19:44:19.810Z,111.13
2022-12-16T19:47:06.994Z,113.05
2022-12-16T19:49:52.275Z,85.93
2022-12-16T19:52:40.369Z,104.35
2022-12-16T19:55:26.679Z,99.35
2022-12-16T19:58:12.190Z,162.85
2022-12-16T20:00:57.931Z,77.72
2022-12-16T20:03:45.316Z,102.00
2022-12-16T20:06:31.859Z,77.75
2022-12-16T20:09:17.706Z,90.18
2022-12-16T20:12:03.741Z,100.25
2022-12-16T20:14:49.088Z,122.03
2022-12-16T20:17:35.155Z,84.68
2022-12-16T20:20:23.469Z,93.25
2022-12-16T20:23:09.152Z,78.85
2022-12-16T20:29:00.415Z,107.68
2022-12-16T20:31:46.844Z,111.68
2022-12-16T20:34:33.279Z,99.18
2022-12-16T20:37:20.369Z,78.15
2022-12-16T20:40:05.651Z,121.00
2022-12-16T20:42:51.056Z,157.50
2022-12-16T20:45:40.267Z,115.90
2022-12-16T20:48:31.936Z,89.97
2022-12-16T20:54:29.713Z,108.18
2022-12-16T20:57:15.561Z,97.38
2022-12-16T21:00:01.268Z,110.38
2022-12-16T21:02:46.601Z,98.80
2022-12-16T21:05:32.527Z,85.82
2022-12-16T21:08:18.005Z,110.68
2022-12-16T21:11:04.874Z,59.65
2022-12-16T21:13:50.558Z,66.70
2022-12-16T21:16:35.939Z,96.25
2022-12-16T21:22:32.680Z,96.47
2022-12-16T21:25:24.409Z,92.20
2022-12-16T21:28:15.004Z,99.68
2022-12-16T21:31:00.573Z,113.07
2022-12-16T21:33:46.310Z,83.38
2022-12-16T21:36:32.167Z,106.93
2022-12-16T21:39:17.755Z,87.95
2022-12-16T21:42:03.296Z,109.43
2022-12-16T21:44:50.093Z,83.03
2022-12-16T21:47:39.187Z,67.55
2022-12-16T21:50:25.685Z,79.65
2022-12-16T21:53:11.608Z,63.10
2022-12-16T21:55:57.119Z,93.25
2022-12-16T21:58:42.777Z,81.47
2022-12-16T22:01:29.931Z,52.83
2022-12-16T22:04:15.501Z,59.05
2022-12-16T22:07:01.042Z,79.43
2022-12-16T22:09:46.720Z,92.72
2022-12-16T22:12:32.886Z,73.30
2022-12-16T22:15:19.258Z,95.63
2022-12-16T22:18:08.734Z,74.25
2022-12-16T22:20:57.575Z,96.78
2022-12-16T22:23:47.107Z,105.95
2022-12-16T22:26:33.936Z,75.53
2022-12-16T22:29:21.599Z,95.68
2022-12-16T22:32:08.649Z,89.40
2022-12-16T22:34:59.697Z,92.63
2022-12-16T22:37:47.070Z,69.55
2022-12-16T22:40:36.646Z,80.20
2022-12-16T22:43:23.283Z,85.95
2022-12-16T22:46:22.578Z,74.45
2022-12-16T22:49:08.176Z,89.95
2022-12-16T22:51:57.242Z,86.60
2022-12-16T22:54:42.926Z,81.13
2022-12-16T22:57:30.287Z,92.18
2022-12-16T23:00:16.534Z,88.47
2022-12-16T23:03:01.940Z,109.50
2022-12-16T23:05:47.505Z,93.30
2022-12-16T23:08:34.562Z,91.63
2022-12-16T23:11:20.358Z,100.25
2022-12-16T23:14:05.805Z,98.38
2022-12-16T23:16:51.327Z,88.88
2022-12-16T23:19:39.127Z,86.05
2022-12-16T23:22:24.722Z,100.35
2022-12-16T23:25:11.316Z,84.00
2022-12-16T23:27:57.261Z,91.50
2022-12-16T23:30:43.286Z,111.32
2022-12-16T23:33:29.571Z,98.07
2022-12-16T23:36:15.059Z,85.38
2022-12-16T23:39:15.342Z,99.60
2022-12-16T23:42:03.794Z,78.80
2022-12-16T23:44:56.262Z,114.57
2022-12-16T23:47:42.154Z,98.97
2022-12-16T23:50:28.304Z,61.85
2022-12-16T23:53:17.367Z,66.03
2022-12-16T23:56:02.673Z,109.45
2022-12-16T23:58:49.509Z,65.75
